Time;durP1;ratioP1;P1;durP2;ratioP2;P2;SDS_P1;SDS_P2;PMS_P1;PMS_P2;Temp;Humidity;BMP_temperature;BMP_pressure;BME280_temperature;BME280_humidity;BME280_pressure;Samples;Min_cycle;Max_cycle;Signal;HPM_P1;HPM_P2
2021/12/01 00:00:19;;;;;;;3.50;1.70;;;15.10;87.80;;;;;;1982247;29;20203;-73
2021/12/01 00:01:18;;;;;;;6.88;2.20;;;15.10;87.80;;;;;;1981465;29;20190;-72
2021/12/01 00:02:18;;;;;;;6.10;2.20;;;15.10;87.50;;;;;;1981443;29;20183;-72
2021/12/01 00:03:18;;;;;;;7.57;2.25;;;15.10;86.90;;;;;;1989055;28;20171;-72
2021/12/01 00:04:18;;;;;;;4.35;1.73;;;15.10;86.90;;;;;;1982333;28;20230;-73
2021/12/01 00:05:16;;;;;;;3.17;1.50;;;15.10;87.60;;;;;;1982217;28;20182;-73
2021/12/01 00:06:15;;;;;;;6.13;2.50;;;15.10;86.90;;;;;;1982149;28;20179;-73
2021/12/01 00:07:14;;;;;;;9.03;1.77;;;15.10;87.00;;;;;;1982289;29;20178;-73
2021/12/01 00:08:12;;;;;;;7.60;2.40;;;15.10;86.70;;;;;;1981395;29;20175;-73
2021/12/01 00:09:11;;;;;;;6.67;2.23;;;15.00;87.20;;;;;;1981576;29;20171;-72
2021/12/01 00:10:10;;;;;;;4.17;1.90;;;15.10;87.20;;;;;;1981557;29;20599;-73
2021/12/01 00:11:08;;;;;;;7.07;2.07;;;15.10;87.60;;;;;;1981539;29;20199;-72
2021/12/01 00:12:07;;;;;;;7.50;2.10;;;15.10;87.60;;;;;;1982267;29;20182;-73
2021/12/01 00:13:10;;;;;;;4.60;1.70;;;15.10;88.70;;;;;;1982368;29;20676;-73
2021/12/01 00:14:09;;;;;;;5.32;2.50;;;15.10;90.40;;;;;;1982189;29;20210;-73
2021/12/01 00:15:08;;;;;;;3.50;1.80;;;;;;;;;;1982096;28;20653;-72
2021/12/01 00:16:08;;;;;;;4.05;2.38;;;15.00;91.80;;;;;;1982107;29;20254;-73
2021/12/01 00:17:11;;;;;;;4.13;1.95;;;15.10;91.40;;;;;;1982062;29;20308;-72
2021/12/01 00:18:10;;;;;;;2.90;1.83;;;15.10;90.40;;;;;;1981233;28;20667;-72
2021/12/01 00:19:08;;;;;;;3.23;1.50;;;15.10;90.80;;;;;;1981451;29;20216;-73
2021/12/01 00:20:10;;;;;;;3.73;1.50;;;15.10;90.60;;;;;;1981907;29;20824;-73
2021/12/01 00:21:08;;;;;;;3.42;1.60;;;15.10;90.70;;;;;;1981912;29;20187;-73
2021/12/01 00:22:07;;;;;;;3.20;1.83;;;15.10;90.80;;;;;;1982187;28;20303;-72
2021/12/01 00:23:08;;;;;;;4.20;1.67;;;;;;;;;;1982154;29;20175;-73
2021/12/01 00:24:07;;;;;;;3.70;1.65;;;15.10;91.10;;;;;;1982123;28;20403;-72
2021/12/01 00:25:08;;;;;;;3.07;1.80;;;15.10;90.50;;;;;;1981429;29;20179;-72
2021/12/01 00:26:07;;;;;;;3.10;2.00;;;15.10;91.40;;;;;;1981817;29;20167;-72
2021/12/01 00:27:05;;;;;;;6.83;2.50;;;15.10;90.70;;;;;;1982174;29;20706;-72
2021/12/01 00:28:04;;;;;;;2.63;1.50;;;;;;;;;;1982202;28;20194;-73
2021/12/01 00:29:03;;;;;;;4.73;2.00;;;15.10;90.90;;;;;;1982002;28;20577;-73
2021/12/01 00:30:03;;;;;;;2.70;1.90;;;15.00;90.90;;;;;;1982072;28;20474;-73
2021/12/01 00:31:02;;;;;;;8.10;2.08;;;15.20;91.80;;;;;;1981956;28;20527;-73
2021/12/01 00:32:02;;;;;;;6.65;1.75;;;15.10;91.90;;;;;;1981967;28;20179;-73
2021/12/01 00:33:00;;;;;;;3.35;1.83;;;15.00;91.30;;;;;;1981705;28;20214;-73
2021/12/01 00:34:00;;;;;;;3.83;1.90;;;15.10;92.90;;;;;;1981871;29;20183;-73
2021/12/01 00:35:01;;;;;;;3.15;1.77;;;15.10;91.50;;;;;;1981959;28;20183;-72
2021/12/01 00:35:59;;;;;;;2.85;1.83;;;15.10;90.00;;;;;;1982034;28;20540;-72
2021/12/01 00:36:58;;;;;;;8.20;2.87;;;15.10;89.40;;;;;;1981995;29;20199;-73
2021/12/01 00:37:57;;;;;;;3.90;1.80;;;15.00;89.90;;;;;;1982113;28;20182;-72
2021/12/01 00:38:55;;;;;;;8.27;1.70;;;15.10;90.00;;;;;;1981896;29;20181;-72
2021/12/01 00:39:54;;;;;;;2.87;2.20;;;15.10;90.40;;;;;;1981142;29;20783;-72
2021/12/01 00:40:53;;;;;;;3.23;2.27;;;15.10;91.70;;;;;;1981306;29;20175;-72
2021/12/01 00:41:53;;;;;;;5.63;2.92;;;;;;;;;;1981753;29;20294;-72
2021/12/01 00:42:52;;;;;;;4.47;1.95;;;14.90;93.70;;;;;;1981889;29;20190;-72
2021/12/01 00:43:51;;;;;;;3.50;1.80;;;15.10;94.30;;;;;;1981981;29;20211;-72
2021/12/01 00:44:56;;;;;;;4.35;2.00;;;15.10;94.10;;;;;;1981700;28;20174;-73
2021/12/01 00:46:08;;;;;;;2.08;1.48;;;15.00;94.00;;;;;;1981206;29;20182;-73
2021/12/01 00:47:06;;;;;;;4.30;1.88;;;15.00;93.90;;;;;;1981497;29;20262;-72
2021/12/01 00:48:05;;;;;;;2.50;1.70;;;15.00;94.40;;;;;;1982026;29;20206;-72
2021/12/01 00:49:04;;;;;;;2.47;1.63;;;;;;;;;;1981917;28;20175;-72
2021/12/01 00:50:03;;;;;;;4.15;1.98;;;;;;;;;;1980949;29;20317;-72
2021/12/01 00:51:02;;;;;;;6.75;2.10;;;;;;;;;;1981234;29;20186;-72
2021/12/01 00:52:01;;;;;;;5.05;2.22;;;;;;;;;;1981358;29;20183;-72
2021/12/01 00:53:04;;;;;;;3.65;1.90;;;;;;;;;;1982039;29;20171;-72
2021/12/01 00:54:05;;;;;;;6.22;2.25;;;15.00;94.30;;;;;;1981833;28;20183;-72
2021/12/01 00:55:05;;;;;;;7.55;1.88;;;15.00;94.30;;;;;;1981841;29;20282;-72
2021/12/01 00:56:04;;;;;;;4.22;2.00;;;15.00;94.40;;;;;;1981978;28;20175;-72
2021/12/01 00:57:03;;;;;;;4.63;1.88;;;15.00;94.60;;;;;;1980991;29;20370;-72
2021/12/01 00:58:02;;;;;;;4.87;2.30;;;15.00;94.50;;;;;;1981332;29;20183;-72
2021/12/01 00:59:02;;;;;;;3.95;2.10;;;;;;;;;;1982162;29;20536;-72
2021/12/01 01:00:01;;;;;;;4.95;2.00;;;;;;;;;;1981655;29;20250;-72
2021/12/01 01:01:01;;;;;;;3.15;1.90;;;;;;;;;;1982333;29;20179;-72
2021/12/01 01:02:00;;;;;;;4.47;2.20;;;;;;;;;;1984894;29;20201;-72
2021/12/01 01:03:00;;;;;;;6.53;2.10;;;;;;;;;;1991258;28;20193;-71
2021/12/01 01:03:58;;;;;;;4.80;2.42;;;15.20;92.80;;;;;;1989656;29;20434;-72
2021/12/01 01:04:57;;;;;;;2.30;1.50;;;15.00;92.00;;;;;;1990063;29;20186;-72
2021/12/01 01:05:56;;;;;;;5.10;2.27;;;;;;;;;;1988166;29;20179;-73
2021/12/01 01:06:55;;;;;;;6.50;1.87;;;;;;;;;;1982889;28;20662;-73
2021/12/01 01:07:54;;;;;;;5.43;2.10;;;;;;;;;;1982882;28;20395;-73
2021/12/01 01:08:53;;;;;;;1.73;1.60;;;;;;;;;;1982845;28;20446;-73
2021/12/01 01:09:53;;;;;;;4.68;1.90;;;;;;;;;;1982139;29;20175;-72
2021/12/01 01:11:09;;;;;;;9.98;2.53;;;;;;;;;;1981859;29;20517;-73
2021/12/01 01:17:30;;;;;;;2.70;1.67;;;;;;;;;;1981725;29;20159;-72
2021/12/01 01:18:31;;;;;;;2.65;2.05;;;;;;;;;;1980992;29;20274;-73
2021/12/01 01:19:30;;;;;;;5.07;2.10;;;;;;;;;;1981174;29;20534;-72
2021/12/01 01:20:29;;;;;;;3.10;1.63;;;;;;;;;;1980888;29;20194;-73
2021/12/01 01:21:33;;;;;;;14.25;2.13;;;14.90;99.10;;;;;;1980893;29;20410;-72
2021/12/01 01:22:31;;;;;;;7.13;2.30;;;15.10;93.50;;;;;;1981824;28;20156;-73
2021/12/01 01:23:30;;;;;;;4.07;1.43;;;15.00;90.70;;;;;;1981571;29;20171;-73
2021/12/01 01:24:29;;;;;;;4.70;2.57;;;15.00;90.40;;;;;;1981540;28;20171;-73
2021/12/01 01:25:29;;;;;;;3.08;1.60;;;15.00;90.30;;;;;;1981465;28;20194;-73
2021/12/01 01:26:28;;;;;;;9.25;2.47;;;14.90;90.30;;;;;;1981449;29;20187;-73
2021/12/01 01:27:29;;;;;;;2.67;1.73;;;14.90;90.10;;;;;;1981692;28;20175;-73
2021/12/01 01:28:28;;;;;;;2.47;1.53;;;15.00;90.10;;;;;;1980866;29;20669;-73
2021/12/01 01:29:27;;;;;;;3.47;1.73;;;15.10;90.40;;;;;;1980695;28;20671;-73
2021/12/01 01:30:26;;;;;;;3.25;1.88;;;15.00;90.20;;;;;;1981370;29;20190;-72
2021/12/01 01:31:24;;;;;;;4.27;2.10;;;15.00;90.30;;;;;;1981476;29;20175;-73
2021/12/01 01:32:23;;;;;;;4.40;2.00;;;15.00;90.80;;;;;;1981445;29;20243;-73
2021/12/01 01:33:22;;;;;;;2.23;1.50;;;14.90;90.40;;;;;;1981376;29;20175;-73
2021/12/01 01:34:22;;;;;;;5.15;1.90;;;14.90;90.40;;;;;;1981447;29;20171;-73
2021/12/01 01:35:20;;;;;;;4.60;1.88;;;15.10;90.40;;;;;;1981621;29;20187;-73
2021/12/01 01:36:19;;;;;;;3.67;2.00;;;14.90;90.60;;;;;;1981620;29;20168;-73
2021/12/01 01:37:18;;;;;;;4.40;2.15;;;15.00;90.90;;;;;;1981625;29;20179;-72
2021/12/01 01:38:17;;;;;;;6.53;2.10;;;15.00;90.70;;;;;;1981498;28;20210;-72
2021/12/01 01:39:15;;;;;;;3.60;1.80;;;14.90;90.60;;;;;;1981541;28;20198;-72
2021/12/01 01:40:14;;;;;;;2.70;1.60;;;15.00;90.70;;;;;;1981497;29;20175;-73
2021/12/01 01:41:14;;;;;;;2.60;1.47;;;14.90;90.80;;;;;;1981459;28;20426;-72
2021/12/01 01:42:13;;;;;;;3.28;1.83;;;14.90;91.40;;;;;;1981611;28;20709;-73
2021/12/01 01:43:12;;;;;;;3.60;2.30;;;14.90;91.00;;;;;;1981518;29;20526;-73
2021/12/01 01:44:11;;;;;;;3.95;1.50;;;15.10;90.90;;;;;;1981368;29;20163;-72
2021/12/01 01:45:10;;;;;;;2.63;1.63;;;14.90;90.90;;;;;;1981185;29;20174;-72
2021/12/01 01:46:09;;;;;;;3.38;1.77;;;15.00;91.30;;;;;;1981290;29;20407;-73
2021/12/01 01:47:09;;;;;;;4.03;1.80;;;14.90;91.80;;;;;;1981339;28;20210;-73
2021/12/01 01:48:13;;;;;;;2.80;1.70;;;14.90;91.80;;;;;;1981475;28;20179;-73
2021/12/01 01:49:19;;;;;;;2.80;2.00;;;14.90;92.00;;;;;;1980700;29;20278;-73
2021/12/01 01:50:34;;;;;;;8.02;2.40;;;14.90;92.20;;;;;;1981101;28;20773;-73
2021/12/01 01:51:33;;;;;;;4.05;1.88;;;14.90;92.70;;;;;;1987106;28;20185;-73
2021/12/01 01:52:34;;;;;;;4.43;2.10;;;;;;;;;;1981377;28;20179;-73
2021/12/01 01:53:34;;;;;;;4.30;2.13;;;15.10;94.20;;;;;;1981328;28;20403;-73
2021/12/01 01:54:33;;;;;;;5.93;1.90;;;;;;;;;;1981418;28;20179;-73
2021/12/01 01:55:33;;;;;;;5.30;2.35;;;;;;;;;;1981317;29;20177;-73
2021/12/01 01:56:31;;;;;;;2.70;1.65;;;15.60;91.70;;;;;;1981334;29;20218;-73
2021/12/01 01:57:30;;;;;;;5.00;1.83;;;14.90;91.20;;;;;;1981260;28;20179;-72
2021/12/01 01:58:29;;;;;;;4.57;1.97;;;14.90;91.30;;;;;;1981348;28;20639;-73
2021/12/01 01:59:28;;;;;;;1.95;1.50;;;14.90;92.60;;;;;;1981291;29;20175;-72
2021/12/01 02:00:30;;;;;;;3.03;1.40;;;;;;;;;;1981317;28;20190;-72
2021/12/01 02:02:30;;;;;;;7.57;2.40;;;14.90;91.00;;;;;;1981394;28;20172;-73
2021/12/01 02:03:28;;;;;;;5.13;2.10;;;14.90;90.60;;;;;;1981388;28;20634;-72
2021/12/01 02:04:32;;;;;;;2.90;1.90;;;14.90;89.70;;;;;;1981321;28;20237;-73
2021/12/01 02:05:37;;;;;;;2.45;1.58;;;14.90;89.60;;;;;;1981558;29;20174;-73
2021/12/01 02:06:36;;;;;;;4.45;2.05;;;14.90;89.60;;;;;;1981297;28;20349;-73
2021/12/01 02:07:35;;;;;;;4.13;1.60;;;14.90;89.40;;;;;;1981418;29;20171;-72
2021/12/01 02:08:36;;;;;;;5.40;3.47;;;14.90;90.80;;;;;;1981383;28;20175;-72
2021/12/01 02:09:35;;;;;;;4.47;2.00;;;14.90;91.40;;;;;;1981174;29;20542;-71
2021/12/01 02:10:34;;;;;;;4.10;2.10;;;14.90;91.30;;;;;;1981298;28;20174;-72
2021/12/01 02:11:33;;;;;;;2.00;1.43;;;14.90;91.10;;;;;;1981362;29;20914;-73
2021/12/01 02:12:31;;;;;;;3.47;1.55;;;15.00;91.80;;;;;;1981551;28;20203;-72
2021/12/01 02:13:31;;;;;;;3.67;1.60;;;14.90;89.60;;;;;;1980616;29;20183;-72
2021/12/01 02:14:31;;;;;;;3.97;1.98;;;14.90;90.20;;;;;;1980679;29;20539;-71
2021/12/01 02:15:30;;;;;;;2.58;1.67;;;14.90;90.80;;;;;;1980886;29;20191;-73
2021/12/01 02:16:29;;;;;;;2.73;1.80;;;;;;;;;;1981206;29;20182;-73
2021/12/01 02:17:27;;;;;;;3.40;2.00;;;14.80;91.90;;;;;;1981389;29;20230;-73
2021/12/01 02:18:26;;;;;;;3.87;1.90;;;14.90;92.20;;;;;;1981334;28;20442;-72
2021/12/01 02:19:26;;;;;;;2.38;1.50;;;14.90;92.50;;;;;;1981544;28;20570;-72
2021/12/01 02:20:24;;;;;;;2.45;1.50;;;14.90;91.90;;;;;;1980621;29;20567;-75
2021/12/01 02:21:28;;;;;;;4.57;1.90;;;14.80;91.80;;;;;;1980518;29;20171;-72
2021/12/01 02:22:27;;;;;;;3.08;1.73;;;14.90;92.20;;;;;;1981214;28;20164;-73
2021/12/01 02:23:26;;;;;;;2.00;1.40;;;15.10;92.10;;;;;;1981290;28;20238;-72
2021/12/01 02:24:25;;;;;;;4.22;1.77;;;14.80;92.00;;;;;;1981314;28;20177;-72
2021/12/01 02:25:24;;;;;;;3.60;1.80;;;14.90;92.10;;;;;;1981475;28;20171;-71
2021/12/01 02:26:23;;;;;;;5.90;1.30;;;14.90;92.20;;;;;;1981384;28;20485;-72
2021/12/01 02:27:22;;;;;;;3.00;1.40;;;14.80;92.20;;;;;;1981652;29;20190;-72
2021/12/01 02:28:21;;;;;;;3.20;1.70;;;14.90;92.40;;;;;;1981396;29;20167;-74
2021/12/01 02:29:23;;;;;;;4.93;1.80;;;14.80;92.40;;;;;;1981455;28;20203;-72
2021/12/01 02:30:23;;;;;;;2.80;1.73;;;14.90;92.60;;;;;;1981403;29;20430;-72
2021/12/01 02:31:30;;;;;;;3.88;2.55;;;14.90;92.90;;;;;;1981284;28;20538;-72
2021/12/01 02:32:28;;;;;;;3.85;2.15;;;14.80;92.70;;;;;;1981390;29;20164;-73
2021/12/01 02:33:28;;;;;;;5.27;2.27;;;14.80;92.80;;;;;;1981059;29;20696;-72
2021/12/01 02:34:30;;;;;;;3.45;1.50;;;14.80;92.80;;;;;;1981127;29;20171;-72
2021/12/01 02:35:29;;;;;;;3.63;1.90;;;14.90;93.00;;;;;;1981351;29;20186;-73
2021/12/01 02:36:28;;;;;;;2.80;1.67;;;14.90;93.30;;;;;;1981194;28;20209;-71
2021/12/01 02:37:27;;;;;;;2.90;1.70;;;14.90;93.40;;;;;;1981296;28;20262;-72
2021/12/01 02:38:26;;;;;;;3.53;1.45;;;;;;;;;;1981321;29;20229;-72
2021/12/01 02:39:26;;;;;;;2.50;1.35;;;;;;;;;;1981249;28;20199;-71
2021/12/01 02:40:25;;;;;;;4.50;1.98;;;;;;;;;;1981234;28;20175;-71
2021/12/01 02:41:28;;;;;;;4.30;1.67;;;;;;;;;;1981231;28;20175;-72
2021/12/01 02:42:27;;;;;;;2.35;1.52;;;;;;;;;;1982618;29;20398;-72
2021/12/01 02:43:28;;;;;;;3.43;1.60;;;;;;;;;;1982980;29;20203;-72
2021/12/01 02:44:28;;;;;;;2.40;1.60;;;;;;;;;;1982818;29;20399;-73
2021/12/01 02:45:26;;;;;;;4.82;2.20;;;14.80;94.80;;;;;;1982567;29;20171;-72
2021/12/01 02:46:25;;;;;;;4.20;1.63;;;15.00;90.10;;;;;;1981904;29;20599;-72
2021/12/01 02:47:25;;;;;;;2.60;1.80;;;14.90;90.40;;;;;;1982178;29;20183;-72
2021/12/01 02:48:24;;;;;;;2.50;1.80;;;15.10;92.80;;;;;;1982129;29;20548;-71
2021/12/01 02:49:24;;;;;;;4.47;2.00;;;;;;;;;;1982647;29;20254;-72
2021/12/01 02:50:23;;;;;;;6.35;1.70;;;14.90;92.20;;;;;;1982531;29;20242;-72
2021/12/01 02:51:26;;;;;;;4.57;1.80;;;14.90;91.90;;;;;;1982116;29;20215;-73
2021/12/01 02:52:26;;;;;;;3.75;1.70;;;14.90;95.10;;;;;;1982186;29;20159;-74
2021/12/01 02:53:25;;;;;;;4.05;1.70;;;14.90;95.10;;;;;;1982693;29;20175;-72
2021/12/01 02:54:25;;;;;;;4.45;1.73;;;15.00;95.30;;;;;;1982759;28;20179;-72
2021/12/01 02:55:27;;;;;;;2.58;1.50;;;14.90;95.20;;;;;;1982753;28;20176;-71
2021/12/01 02:56:28;;;;;;;2.40;1.80;;;14.90;94.90;;;;;;1982558;28;20167;-72
2021/12/01 02:57:27;;;;;;;2.40;1.50;;;14.90;95.20;;;;;;1982524;29;20187;-73
2021/12/01 02:58:30;;;;;;;4.00;1.93;;;15.00;95.40;;;;;;1982627;29;20626;-71
2021/12/01 02:59:28;;;;;;;3.55;1.50;;;14.90;95.40;;;;;;1981937;29;20714;-72
2021/12/01 03:00:27;;;;;;;2.50;1.37;;;14.90;95.50;;;;;;1981893;29;20186;-72
2021/12/01 03:01:28;;;;;;;6.00;2.08;;;15.10;95.50;;;;;;1982033;29;20564;-73
2021/12/01 03:02:27;;;;;;;2.72;2.05;;;15.10;95.70;;;;;;1982570;28;20220;-72
2021/12/01 03:03:26;;;;;;;3.73;2.10;;;14.90;95.50;;;;;;1982721;29;20170;-73
2021/12/01 03:04:25;;;;;;;2.70;1.55;;;14.90;94.90;;;;;;1982609;29;20171;-72
2021/12/01 03:05:24;;;;;;;4.50;1.83;;;14.90;90.40;;;;;;1982545;28;20183;-71
2021/12/01 03:06:26;;;;;;;2.85;1.80;;;15.00;90.90;;;;;;1982584;28;20541;-72
2021/12/01 03:07:25;;;;;;;6.57;2.00;;;14.90;91.20;;;;;;1982805;29;20186;-72
2021/12/01 03:08:24;;;;;;;8.70;1.63;;;15.00;91.70;;;;;;1982671;29;20619;-74
2021/12/01 03:09:23;;;;;;;3.85;1.98;;;15.00;91.80;;;;;;1982298;29;20595;-72
2021/12/01 03:10:21;;;;;;;4.13;1.57;;;14.90;93.50;;;;;;1982486;29;20187;-72
2021/12/01 03:11:20;;;;;;;3.43;1.93;;;14.90;94.10;;;;;;1982732;28;20399;-72
2021/12/01 03:12:18;;;;;;;3.03;1.60;;;14.90;91.00;;;;;;1982591;28;20202;-73
2021/12/01 03:13:18;;;;;;;2.23;1.37;;;15.00;92.30;;;;;;1982583;29;20194;-73
2021/12/01 03:14:20;;;;;;;2.47;1.40;;;;;;;;;;1981905;29;20233;-72
2021/12/01 03:15:21;;;;;;;6.78;2.00;;;;;;;;;;1981953;29;20575;-72
2021/12/01 03:16:21;;;;;;;3.70;1.48;;;;;;;;;;1982449;29;20191;-74
2021/12/01 03:17:23;;;;;;;2.88;1.75;;;;;;;;;;1982589;28;20182;-73
2021/12/01 03:18:22;;;;;;;3.95;1.98;;;14.90;95.80;;;;;;1981988;29;20699;-72
2021/12/01 03:19:22;;;;;;;2.85;1.88;;;;;;;;;;1982004;29;20190;-72
2021/12/01 03:20:22;;;;;;;3.53;1.75;;;;;;;;;;1982452;29;20175;-73
2021/12/01 03:21:21;;;;;;;2.33;1.73;;;14.90;91.70;;;;;;1982227;28;20183;-72
2021/12/01 03:22:20;;;;;;;2.60;1.57;;;15.10;91.10;;;;;;1982394;29;20206;-72
2021/12/01 03:23:19;;;;;;;2.23;1.33;;;15.10;91.50;;;;;;1982523;28;20171;-73
2021/12/01 03:24:18;;;;;;;1.50;1.33;;;15.10;93.10;;;;;;1982398;29;20415;-73
2021/12/01 03:25:17;;;;;;;3.23;1.70;;;15.00;94.10;;;;;;1982538;28;20635;-73
2021/12/01 03:26:15;;;;;;;3.27;1.93;;;15.10;94.10;;;;;;1982341;28;20651;-73
2021/12/01 03:27:14;;;;;;;3.87;1.73;;;15.20;94.90;;;;;;1982486;29;20175;-73
2021/12/01 03:28:13;;;;;;;3.58;2.00;;;15.10;94.60;;;;;;1982474;29;20243;-73
2021/12/01 03:29:16;;;;;;;3.00;1.57;;;15.00;95.10;;;;;;1982564;28;20226;-73
2021/12/01 03:30:14;;;;;;;2.40;1.70;;;15.10;90.70;;;;;;1982423;29;20430;-72
2021/12/01 03:31:13;;;;;;;1.50;1.23;;;15.10;90.60;;;;;;1981845;29;20752;-72
2021/12/01 03:32:13;;;;;;;3.10;1.90;;;15.10;90.90;;;;;;1981627;29;20257;-72
2021/12/01 03:33:14;;;;;;;1.45;1.20;;;15.10;91.20;;;;;;1981517;29;20237;-72
2021/12/01 03:34:13;;;;;;;2.25;1.33;;;15.10;91.90;;;;;;1981699;29;20235;-74
2021/12/01 03:35:14;;;;;;;1.87;1.50;;;15.00;93.00;;;;;;1982457;29;20213;-73
2021/12/01 03:36:13;;;;;;;1.85;1.55;;;;;;;;;;1982047;28;20184;-72
2021/12/01 03:37:12;;;;;;;3.47;1.40;;;15.00;92.90;;;;;;1982443;29;20644;-71
2021/12/01 03:38:12;;;;;;;4.20;1.63;;;15.10;93.10;;;;;;1982136;29;20194;-71
2021/12/01 03:39:11;;;;;;;3.20;1.75;;;15.20;94.00;;;;;;1981821;29;20258;-72
2021/12/01 03:40:12;;;;;;;3.37;2.30;;;15.10;93.60;;;;;;1981809;29;20571;-72
2021/12/01 03:41:11;;;;;;;5.13;1.85;;;15.10;91.50;;;;;;1981926;29;20658;-72
2021/12/01 03:42:09;;;;;;;1.50;1.40;;;15.10;95.10;;;;;;1982396;29;20202;-72
2021/12/01 03:43:09;;;;;;;2.87;1.60;;;;;;;;;;1982361;28;20410;-72
2021/12/01 03:44:08;;;;;;;2.38;1.58;;;14.90;95.10;;;;;;1982217;28;20182;-72
2021/12/01 03:45:07;;;;;;;3.25;1.75;;;15.10;95.60;;;;;;1982276;29;20255;-73
2021/12/01 03:46:06;;;;;;;2.40;1.65;;;15.10;90.90;;;;;;1982082;28;20230;-72
2021/12/01 03:47:05;;;;;;;2.70;1.33;;;15.10;93.40;;;;;;1982220;28;20195;-72
2021/12/01 03:48:04;;;;;;;3.50;1.60;;;15.10;94.00;;;;;;1981798;29;20186;-73
2021/12/01 03:49:03;;;;;;;2.27;1.50;;;;;;;;;;1981812;29;20171;-73
2021/12/01 03:50:03;;;;;;;2.63;1.53;;;;;;;;;;1982248;29;20457;-73
2021/12/01 03:51:02;;;;;;;7.80;1.80;;;;;;;;;;1981934;29;20418;-72
2021/12/01 03:52:01;;;;;;;2.08;1.45;;;;;;;;;;1982235;29;20584;-73
2021/12/01 03:53:00;;;;;;;2.00;1.50;;;;;;;;;;1982270;28;20183;-73
2021/12/01 03:53:59;;;;;;;2.17;1.65;;;15.10;93.50;;;;;;1983076;29;20895;-72
2021/12/01 03:54:58;;;;;;;3.27;1.57;;;15.20;91.30;;;;;;1984619;29;20179;-72
2021/12/01 03:55:57;;;;;;;1.95;1.20;;;15.20;92.20;;;;;;1991521;29;20167;-72
2021/12/01 03:56:55;;;;;;;2.10;1.20;;;15.20;93.30;;;;;;1991176;28;20191;-72
2021/12/01 03:57:54;;;;;;;2.70;1.60;;;15.10;93.50;;;;;;1990169;29;20202;-71
2021/12/01 03:58:53;;;;;;;2.50;1.43;;;15.20;93.70;;;;;;1989023;29;20164;-72
2021/12/01 03:59:52;;;;;;;2.63;1.42;;;;;;;;;;1983723;29;20250;-72
2021/12/01 04:00:51;;;;;;;3.60;1.55;;;;;;;;;;1983479;29;20173;-72
2021/12/01 04:01:50;;;;;;;1.70;1.60;;;15.10;96.20;;;;;;1983305;29;20179;-72
2021/12/01 04:02:49;;;;;;;3.47;1.50;;;;;;;;;;1982835;29;20399;-73
2021/12/01 04:03:47;;;;;;;2.47;1.90;;;15.10;95.40;;;;;;1982297;29;20172;-72
2021/12/01 04:04:46;;;;;;;2.50;1.80;;;15.20;90.70;;;;;;1982125;29;20426;-72
2021/12/01 04:05:45;;;;;;;1.53;1.43;;;15.10;91.00;;;;;;1982060;29;20175;-73
2021/12/01 04:06:43;;;;;;;2.27;1.40;;;15.20;92.70;;;;;;1981360;29;20250;-72
2021/12/01 04:07:42;;;;;;;2.40;1.77;;;15.20;93.90;;;;;;1981529;29;20179;-72
2021/12/01 04:08:42;;;;;;;1.93;1.40;;;;;;;;;;1981470;29;20214;-73
2021/12/01 04:09:42;;;;;;;3.08;1.15;;;;;;;;;;1988683;28;20195;-73
2021/12/01 04:10:40;;;;;;;4.20;2.00;;;15.10;95.90;;;;;;1982435;28;20242;-73
2021/12/01 04:11:41;;;;;;;2.10;1.40;;;15.10;94.80;;;;;;1982179;28;20172;-73
2021/12/01 04:12:41;;;;;;;2.25;1.30;;;15.10;91.10;;;;;;1982066;29;20262;-73
2021/12/01 04:13:40;;;;;;;2.53;1.58;;;15.20;90.40;;;;;;1982123;28;20183;-73
2021/12/01 04:14:39;;;;;;;2.80;1.70;;;15.20;91.30;;;;;;1982141;28;20221;-72
2021/12/01 04:15:37;;;;;;;4.60;1.50;;;15.20;91.70;;;;;;1981730;29;20298;-73
2021/12/01 04:16:36;;;;;;;2.80;1.37;;;15.20;92.30;;;;;;1973978;29;20799;-74
2021/12/01 04:17:40;;;;;;;2.70;1.90;;;15.10;96.20;;;;;;1980962;29;20206;-73
2021/12/01 04:18:39;;;;;;;2.15;1.45;;;15.20;94.60;;;;;;1982236;29;20310;-73
2021/12/01 04:19:38;;;;;;;4.10;1.95;;;15.30;92.70;;;;;;1982102;29;20266;-72
2021/12/01 04:20:37;;;;;;;3.65;1.70;;;15.10;90.40;;;;;;1982030;28;20175;-72
2021/12/01 04:21:37;;;;;;;3.80;1.87;;;15.20;92.90;;;;;;1981845;28;20578;-72
2021/12/01 04:22:36;;;;;;;2.13;1.90;;;15.30;93.20;;;;;;1981836;28;20240;-72
2021/12/01 04:23:36;;;;;;;4.80;2.00;;;;;;;;;;1982105;28;20172;-72
2021/12/01 04:24:35;;;;;;;2.47;1.40;;;15.10;94.40;;;;;;1982215;28;20655;-72
2021/12/01 04:25:34;;;;;;;2.27;1.80;;;15.20;90.40;;;;;;1981977;28;20608;-73
2021/12/01 04:26:33;;;;;;;1.70;1.40;;;15.20;92.10;;;;;;1981307;29;20205;-73
2021/12/01 04:27:32;;;;;;;1.70;1.38;;;15.20;93.60;;;;;;1981476;29;20179;-72
2021/12/01 04:28:31;;;;;;;2.30;1.43;;;15.20;94.10;;;;;;1982055;29;20203;-72
2021/12/01 04:29:29;;;;;;;2.40;1.47;;;15.10;94.60;;;;;;1981284;29;20419;-72
2021/12/01 04:30:28;;;;;;;2.07;1.40;;;15.20;90.40;;;;;;1981411;29;20171;-72
2021/12/01 04:31:29;;;;;;;2.37;1.80;;;15.20;91.10;;;;;;1981855;29;20175;-72
2021/12/01 04:32:28;;;;;;;3.35;1.60;;;15.10;92.90;;;;;;1982022;28;20520;-72
2021/12/01 04:33:27;;;;;;;3.40;2.10;;;;;;;;;;1981827;28;20201;-73
2021/12/01 04:34:26;;;;;;;5.30;1.73;;;;;;;;;;1981814;29;20179;-72
2021/12/01 04:35:28;;;;;;;2.70;1.60;;;;;;;;;;1981968;28;20748;-72
2021/12/01 04:36:30;;;;;;;3.28;1.85;;;;;;;;;;1981889;28;20759;-73
2021/12/01 04:37:29;;;;;;;2.30;1.60;;;;;;;;;;1981935;29;20180;-73
2021/12/01 04:38:28;;;;;;;2.13;1.40;;;;;;;;;;1982079;28;20211;-72
2021/12/01 04:39:28;;;;;;;2.47;1.50;;;;;;;;;;1981937;29;20414;-73
2021/12/01 04:40:27;;;;;;;1.70;1.45;;;;;;;;;;1981273;29;20722;-73
2021/12/01 04:41:28;;;;;;;2.72;1.60;;;;;;;;;;1981401;29;20179;-74
2021/12/01 04:42:27;;;;;;;3.80;1.70;;;15.10;95.20;;;;;;1981111;29;20245;-73
2021/12/01 04:43:26;;;;;;;2.20;1.43;;;15.10;90.50;;;;;;1981407;29;20174;-72
2021/12/01 04:44:26;;;;;;;1.57;1.47;;;15.20;92.50;;;;;;1981854;29;20207;-73
2021/12/01 04:45:27;;;;;;;2.53;1.90;;;15.20;95.70;;;;;;1981788;29;20171;-73
2021/12/01 04:46:26;;;;;;;2.05;1.65;;;15.10;92.20;;;;;;1981607;28;20631;-71
2021/12/01 04:47:36;;;;;;;2.50;1.77;;;15.20;94.20;;;;;;1981872;29;20175;-72
2021/12/01 04:48:35;;;;;;;2.75;1.65;;;15.10;95.80;;;;;;1981100;29;20172;-74
2021/12/01 04:49:35;;;;;;;1.53;1.20;;;15.10;95.90;;;;;;1981194;29;20191;-72
2021/12/01 04:50:34;;;;;;;2.72;1.67;;;15.10;93.80;;;;;;1981703;29;20214;-73
2021/12/01 04:51:32;;;;;;;3.03;1.77;;;15.10;93.90;;;;;;1981979;28;20186;-72
2021/12/01 04:52:31;;;;;;;3.17;1.80;;;15.10;93.20;;;;;;1981806;29;20657;-73
2021/12/01 04:53:32;;;;;;;2.43;1.80;;;15.10;94.40;;;;;;1981220;29;20573;-72
2021/12/01 04:54:31;;;;;;;4.00;1.80;;;15.20;95.20;;;;;;1981297;29;20418;-72
2021/12/01 04:55:29;;;;;;;3.10;1.70;;;15.10;94.10;;;;;;1981667;29;20596;-73
2021/12/01 04:56:28;;;;;;;2.60;1.70;;;15.20;88.50;;;;;;1981215;29;20207;-72
2021/12/01 04:57:27;;;;;;;3.00;1.80;;;15.10;88.50;;;;;;1980965;29;20227;-73
2021/12/01 04:58:25;;;;;;;5.57;2.00;;;15.10;87.70;;;;;;1981730;29;20234;-72
2021/12/01 04:59:24;;;;;;;2.70;1.70;;;15.20;88.30;;;;;;1981856;29;20186;-72
2021/12/01 05:00:26;;;;;;;3.10;1.70;;;15.10;88.30;;;;;;1973412;29;20180;-73
2021/12/01 05:01:25;;;;;;;1.80;1.27;;;15.10;89.20;;;;;;1973568;29;20419;-73
2021/12/01 05:02:24;;;;;;;2.67;1.77;;;15.20;90.40;;;;;;1981703;29;20234;-73
2021/12/01 05:03:22;;;;;;;1.93;1.60;;;15.10;91.00;;;;;;1981852;29;20179;-72
2021/12/01 05:04:22;;;;;;;2.07;1.37;;;15.30;91.40;;;;;;1981238;28;20269;-73
2021/12/01 05:05:21;;;;;;;2.60;1.58;;;15.10;91.70;;;;;;1981398;29;20202;-73
2021/12/01 05:06:19;;;;;;;3.80;1.83;;;15.10;92.00;;;;;;1980961;29;20639;-72
2021/12/01 05:07:18;;;;;;;1.90;1.40;;;15.10;92.00;;;;;;1981130;29;20175;-73
2021/12/01 05:08:17;;;;;;;2.90;1.47;;;15.10;92.80;;;;;;1981349;29;20674;-72
2021/12/01 05:09:16;;;;;;;3.97;1.87;;;15.10;93.60;;;;;;1981638;29;20163;-73
2021/12/01 05:10:14;;;;;;;4.15;2.22;;;15.30;93.20;;;;;;1981648;28;20948;-72
2021/12/01 05:11:13;;;;;;;2.50;1.40;;;15.10;91.60;;;;;;1981959;28;20175;-72
2021/12/01 05:12:12;;;;;;;4.67;1.90;;;15.10;92.60;;;;;;1981752;29;20226;-73
2021/12/01 05:13:10;;;;;;;3.10;1.67;;;15.20;92.10;;;;;;1981948;29;20179;-72
2021/12/01 05:14:13;;;;;;;4.93;1.87;;;15.10;88.50;;;;;;1981928;29;20179;-72
2021/12/01 05:15:11;;;;;;;2.83;1.70;;;15.10;88.90;;;;;;1981816;28;20331;-73
2021/12/01 05:16:10;;;;;;;3.60;1.67;;;15.10;90.00;;;;;;1981722;28;20273;-73
2021/12/01 05:17:08;;;;;;;3.60;2.17;;;15.10;91.30;;;;;;1981636;29;20649;-73
2021/12/01 05:18:08;;;;;;;4.33;2.00;;;15.30;93.10;;;;;;1981795;28;20253;-73
2021/12/01 05:19:08;;;;;;;2.28;1.60;;;15.00;92.10;;;;;;1980934;29;20647;-72
2021/12/01 05:20:11;;;;;;;2.42;1.50;;;15.10;93.90;;;;;;1980963;29;20190;-72
2021/12/01 05:21:10;;;;;;;2.10;1.70;;;15.10;95.80;;;;;;1980972;29;20179;-72
2021/12/01 05:22:09;;;;;;;3.37;1.97;;;15.20;96.00;;;;;;1981566;28;20206;-72
2021/12/01 05:23:08;;;;;;;2.55;1.30;;;15.20;94.70;;;;;;1981681;28;20214;-73
2021/12/01 05:24:06;;;;;;;3.10;1.63;;;14.90;90.40;;;;;;1981608;29;20261;-73
2021/12/01 05:25:05;;;;;;;3.00;1.60;;;15.10;89.80;;;;;;1981649;29;20182;-73